Terminal Aerodrome Forecast
Issued by NWS Mt. Holly, NJ

Home | Current Version | Previous Version | Text Only | Print | Product List | Glossary On
Versions: 1 2 3 4 5 6 7 8 9 10 11 12 13 14 15 16 17 18 19 20 21 22 23
000
FTUS41 KPHI 010500
TAFTTN
TAF
KTTN 010520Z 0106/0206 02006KT P6SM OVC015
      TEMPO 0108/0111 4SM -RA BR OVC009
     FM011100 05010G20KT 5SM -RA OVC015
     FM011400 05014G24KT 5SM -RA OVC025
     FM012000 02016G26KT P6SM OVC035=

USA.gov is the U.S. government's official web portal to all federal, state and local government web resources and services.